sensor_id;sensor_type;location;lat;lon;timestamp;P1;durP1;ratioP1;P2;durP2;ratioP2
8580;SDS011;4328;48.622;9.230;2023-04-03T00:01:46;2.77;;;2.30;;
8580;SDS011;4328;48.622;9.230;2023-04-03T00:04:13;3.00;;;2.70;;
8580;SDS011;4328;48.622;9.230;2023-04-03T00:06:41;3.37;;;3.07;;
8580;SDS011;4328;48.622;9.230;2023-04-03T00:09:07;2.73;;;2.40;;
8580;SDS011;4328;48.622;9.230;2023-04-03T00:11:33;2.90;;;2.70;;
8580;SDS011;4328;48.622;9.230;2023-04-03T00:14:00;3.03;;;2.73;;
8580;SDS011;4328;48.622;9.230;2023-04-03T00:16:26;3.10;;;2.90;;
8580;SDS011;4328;48.622;9.230;2023-04-03T00:18:53;3.53;;;2.60;;
8580;SDS011;4328;48.622;9.230;2023-04-03T00:21:19;3.33;;;2.80;;
8580;SDS011;4328;48.622;9.230;2023-04-03T00:23:47;3.27;;;2.97;;
8580;SDS011;4328;48.622;9.230;2023-04-03T00:26:13;2.73;;;2.53;;
8580;SDS011;4328;48.622;9.230;2023-04-03T00:28:40;3.30;;;2.90;;
8580;SDS011;4328;48.622;9.230;2023-04-03T00:31:06;2.80;;;2.60;;
8580;SDS011;4328;48.622;9.230;2023-04-03T00:33:32;3.33;;;2.80;;
8580;SDS011;4328;48.622;9.230;2023-04-03T00:35:59;2.57;;;2.40;;
8580;SDS011;4328;48.622;9.230;2023-04-03T00:38:25;2.90;;;2.70;;
8580;SDS011;4328;48.622;9.230;2023-04-03T00:40:53;2.87;;;2.67;;
8580;SDS011;4328;48.622;9.230;2023-04-03T00:43:21;3.17;;;2.70;;
8580;SDS011;4328;48.622;9.230;2023-04-03T00:45:48;2.70;;;2.40;;
8580;SDS011;4328;48.622;9.230;2023-04-03T00:48:15;2.80;;;2.50;;
8580;SDS011;4328;48.622;9.230;2023-04-03T00:50:43;3.43;;;3.13;;
8580;SDS011;4328;48.622;9.230;2023-04-03T00:53:11;2.90;;;2.70;;
8580;SDS011;4328;48.622;9.230;2023-04-03T00:55:38;2.93;;;2.60;;
8580;SDS011;4328;48.622;9.230;2023-04-03T00:58:06;2.97;;;2.77;;
8580;SDS011;4328;48.622;9.230;2023-04-03T01:00:34;2.90;;;2.70;;
8580;SDS011;4328;48.622;9.230;2023-04-03T01:03:02;3.53;;;2.67;;
8580;SDS011;4328;48.622;9.230;2023-04-03T01:05:28;2.97;;;2.60;;
8580;SDS011;4328;48.622;9.230;2023-04-03T01:07:55;2.77;;;2.57;;
8580;SDS011;4328;48.622;9.230;2023-04-03T01:10:22;2.83;;;2.40;;
8580;SDS011;4328;48.622;9.230;2023-04-03T01:12:50;2.60;;;2.40;;
8580;SDS011;4328;48.622;9.230;2023-04-03T01:15:19;2.60;;;2.40;;
8580;SDS011;4328;48.622;9.230;2023-04-03T01:17:46;2.90;;;2.70;;
8580;SDS011;4328;48.622;9.230;2023-04-03T01:20:30;2.60;;;2.40;;
8580;SDS011;4328;48.622;9.230;2023-04-03T01:22:59;2.73;;;2.50;;
8580;SDS011;4328;48.622;9.230;2023-04-03T01:25:28;2.83;;;2.63;;
8580;SDS011;4328;48.622;9.230;2023-04-03T01:27:55;2.70;;;2.50;;
8580;SDS011;4328;48.622;9.230;2023-04-03T01:30:24;2.87;;;2.67;;
8580;SDS011;4328;48.622;9.230;2023-04-03T01:32:53;2.80;;;2.60;;
8580;SDS011;4328;48.622;9.230;2023-04-03T01:35:19;2.70;;;2.50;;
8580;SDS011;4328;48.622;9.230;2023-04-03T01:37:46;4.53;;;2.90;;
8580;SDS011;4328;48.622;9.230;2023-04-03T01:40:12;3.10;;;2.47;;
8580;SDS011;4328;48.622;9.230;2023-04-03T01:42:38;2.57;;;2.37;;
8580;SDS011;4328;48.622;9.230;2023-04-03T01:45:05;3.00;;;2.70;;
8580;SDS011;4328;48.622;9.230;2023-04-03T01:47:32;3.00;;;2.70;;
8580;SDS011;4328;48.622;9.230;2023-04-03T01:49:59;2.90;;;2.70;;
8580;SDS011;4328;48.622;9.230;2023-04-03T01:52:26;3.20;;;3.00;;
8580;SDS011;4328;48.622;9.230;2023-04-03T01:54:53;3.07;;;2.77;;
8580;SDS011;4328;48.622;9.230;2023-04-03T01:57:19;2.73;;;2.53;;
8580;SDS011;4328;48.622;9.230;2023-04-03T01:59:45;3.03;;;2.73;;
8580;SDS011;4328;48.622;9.230;2023-04-03T02:02:12;3.10;;;2.80;;
8580;SDS011;4328;48.622;9.230;2023-04-03T02:04:39;3.10;;;2.90;;
8580;SDS011;4328;48.622;9.230;2023-04-03T02:07:07;3.00;;;2.77;;
8580;SDS011;4328;48.622;9.230;2023-04-03T02:09:33;2.73;;;2.53;;
8580;SDS011;4328;48.622;9.230;2023-04-03T02:12:00;3.47;;;2.60;;
8580;SDS011;4328;48.622;9.230;2023-04-03T02:14:26;2.90;;;2.60;;
8580;SDS011;4328;48.622;9.230;2023-04-03T02:16:53;2.77;;;2.57;;
8580;SDS011;4328;48.622;9.230;2023-04-03T02:19:19;3.03;;;2.83;;
8580;SDS011;4328;48.622;9.230;2023-04-03T02:21:46;3.90;;;2.93;;
8580;SDS011;4328;48.622;9.230;2023-04-03T02:24:13;3.73;;;2.70;;
8580;SDS011;4328;48.622;9.230;2023-04-03T02:26:40;2.87;;;2.67;;
8580;SDS011;4328;48.622;9.230;2023-04-03T02:29:06;2.97;;;2.67;;
8580;SDS011;4328;48.622;9.230;2023-04-03T02:31:33;3.00;;;2.80;;
8580;SDS011;4328;48.622;9.230;2023-04-03T02:33:59;2.90;;;2.70;;
8580;SDS011;4328;48.622;9.230;2023-04-03T02:36:25;2.90;;;2.70;;
8580;SDS011;4328;48.622;9.230;2023-04-03T02:38:52;2.60;;;2.40;;
8580;SDS011;4328;48.622;9.230;2023-04-03T02:41:20;2.63;;;2.43;;
8580;SDS011;4328;48.622;9.230;2023-04-03T02:43:47;3.10;;;2.80;;
8580;SDS011;4328;48.622;9.230;2023-04-03T02:46:13;3.13;;;2.70;;
8580;SDS011;4328;48.622;9.230;2023-04-03T02:48:40;2.70;;;2.50;;
8580;SDS011;4328;48.622;9.230;2023-04-03T02:51:07;3.10;;;2.80;;
8580;SDS011;4328;48.622;9.230;2023-04-03T02:53:33;3.10;;;2.80;;
8580;SDS011;4328;48.622;9.230;2023-04-03T02:55:59;2.90;;;2.60;;
8580;SDS011;4328;48.622;9.230;2023-04-03T02:58:27;3.03;;;2.70;;
8580;SDS011;4328;48.622;9.230;2023-04-03T03:00:53;2.70;;;2.50;;
8580;SDS011;4328;48.622;9.230;2023-04-03T03:03:20;2.90;;;2.70;;
8580;SDS011;4328;48.622;9.230;2023-04-03T03:05:46;2.90;;;2.70;;
8580;SDS011;4328;48.622;9.230;2023-04-03T03:08:13;2.90;;;2.60;;
8580;SDS011;4328;48.622;9.230;2023-04-03T03:10:40;3.27;;;2.97;;
8580;SDS011;4328;48.622;9.230;2023-04-03T03:13:06;2.97;;;2.60;;
8580;SDS011;4328;48.622;9.230;2023-04-03T03:15:34;2.73;;;2.53;;
8580;SDS011;4328;48.622;9.230;2023-04-03T03:18:00;2.60;;;2.40;;
8580;SDS011;4328;48.622;9.230;2023-04-03T03:20:27;2.60;;;2.40;;
8580;SDS011;4328;48.622;9.230;2023-04-03T03:22:53;2.80;;;2.60;;
8580;SDS011;4328;48.622;9.230;2023-04-03T03:25:19;2.70;;;2.50;;
8580;SDS011;4328;48.622;9.230;2023-04-03T03:27:46;3.13;;;2.67;;
8580;SDS011;4328;48.622;9.230;2023-04-03T03:30:12;2.87;;;2.67;;
8580;SDS011;4328;48.622;9.230;2023-04-03T03:32:40;3.03;;;2.27;;
8580;SDS011;4328;48.622;9.230;2023-04-03T03:35:06;2.43;;;2.23;;
8580;SDS011;4328;48.622;9.230;2023-04-03T03:37:33;2.80;;;2.60;;
8580;SDS011;4328;48.622;9.230;2023-04-03T03:39:59;2.50;;;2.30;;
8580;SDS011;4328;48.622;9.230;2023-04-03T03:42:26;2.50;;;2.30;;
8580;SDS011;4328;48.622;9.230;2023-04-03T03:44:52;2.70;;;2.50;;
8580;SDS011;4328;48.622;9.230;2023-04-03T03:47:19;3.30;;;2.50;;
8580;SDS011;4328;48.622;9.230;2023-04-03T03:49:46;3.97;;;2.50;;
8580;SDS011;4328;48.622;9.230;2023-04-03T03:52:13;3.30;;;2.33;;
8580;SDS011;4328;48.622;9.230;2023-04-03T03:54:39;3.40;;;2.60;;
8580;SDS011;4328;48.622;9.230;2023-04-03T03:57:06;2.93;;;2.40;;
8580;SDS011;4328;48.622;9.230;2023-04-03T03:59:32;2.67;;;2.47;;
8580;SDS011;4328;48.622;9.230;2023-04-03T04:01:58;2.50;;;2.30;;
8580;SDS011;4328;48.622;9.230;2023-04-03T04:04:25;2.60;;;2.40;;
8580;SDS011;4328;48.622;9.230;2023-04-03T04:06:53;2.90;;;2.70;;
8580;SDS011;4328;48.622;9.230;2023-04-03T04:09:19;2.57;;;2.37;;
8580;SDS011;4328;48.622;9.230;2023-04-03T04:11:46;2.60;;;2.40;;
8580;SDS011;4328;48.622;9.230;2023-04-03T04:14:13;2.60;;;2.40;;
8580;SDS011;4328;48.622;9.230;2023-04-03T04:16:39;2.37;;;2.20;;
8580;SDS011;4328;48.622;9.230;2023-04-03T04:19:06;3.13;;;2.30;;
8580;SDS011;4328;48.622;9.230;2023-04-03T04:21:32;2.60;;;2.40;;
8580;SDS011;4328;48.622;9.230;2023-04-03T04:24:00;2.63;;;2.43;;
8580;SDS011;4328;48.622;9.230;2023-04-03T04:26:26;2.60;;;2.40;;
8580;SDS011;4328;48.622;9.230;2023-04-03T04:28:52;2.60;;;2.40;;
8580;SDS011;4328;48.622;9.230;2023-04-03T04:31:19;2.70;;;2.50;;
8580;SDS011;4328;48.622;9.230;2023-04-03T04:33:45;2.63;;;2.43;;
8580;SDS011;4328;48.622;9.230;2023-04-03T04:36:12;2.73;;;2.50;;
8580;SDS011;4328;48.622;9.230;2023-04-03T04:38:39;2.73;;;2.53;;
8580;SDS011;4328;48.622;9.230;2023-04-03T04:41:07;3.17;;;2.87;;
8580;SDS011;4328;48.622;9.230;2023-04-03T04:43:33;3.00;;;2.60;;
8580;SDS011;4328;48.622;9.230;2023-04-03T04:46:00;3.03;;;2.60;;
8580;SDS011;4328;48.622;9.230;2023-04-03T04:48:27;2.80;;;2.60;;
8580;SDS011;4328;48.622;9.230;2023-04-03T04:50:54;2.50;;;2.30;;
8580;SDS011;4328;48.622;9.230;2023-04-03T04:53:20;2.47;;;2.37;;
8580;SDS011;4328;48.622;9.230;2023-04-03T04:55:47;2.47;;;2.10;;
8580;SDS011;4328;48.622;9.230;2023-04-03T04:58:14;3.73;;;2.50;;
8580;SDS011;4328;48.622;9.230;2023-04-03T05:00:41;2.90;;;2.60;;
8580;SDS011;4328;48.622;9.230;2023-04-03T05:03:07;2.40;;;2.30;;
8580;SDS011;4328;48.622;9.230;2023-04-03T05:05:34;2.27;;;2.07;;
8580;SDS011;4328;48.622;9.230;2023-04-03T05:08:00;2.87;;;2.17;;
8580;SDS011;4328;48.622;9.230;2023-04-03T05:10:27;2.50;;;2.30;;
8580;SDS011;4328;48.622;9.230;2023-04-03T05:12:53;2.37;;;2.17;;
8580;SDS011;4328;48.622;9.230;2023-04-03T05:15:21;2.70;;;2.20;;
8580;SDS011;4328;48.622;9.230;2023-04-03T05:17:48;2.53;;;2.33;;
8580;SDS011;4328;48.622;9.230;2023-04-03T05:20:14;2.20;;;2.03;;
8580;SDS011;4328;48.622;9.230;2023-04-03T05:22:40;1.97;;;1.80;;
8580;SDS011;4328;48.622;9.230;2023-04-03T05:25:07;2.27;;;2.17;;
8580;SDS011;4328;48.622;9.230;2023-04-03T05:27:34;2.17;;;2.07;;
8580;SDS011;4328;48.622;9.230;2023-04-03T05:30:00;4.57;;;2.37;;
8580;SDS011;4328;48.622;9.230;2023-04-03T05:32:28;2.67;;;2.47;;
8580;SDS011;4328;48.622;9.230;2023-04-03T05:34:54;2.90;;;2.43;;
8580;SDS011;4328;48.622;9.230;2023-04-03T05:37:21;2.40;;;2.30;;
8580;SDS011;4328;48.622;9.230;2023-04-03T05:39:47;2.13;;;1.93;;
8580;SDS011;4328;48.622;9.230;2023-04-03T05:42:14;2.30;;;2.10;;
8580;SDS011;4328;48.622;9.230;2023-04-03T05:44:41;2.27;;;2.17;;
8580;SDS011;4328;48.622;9.230;2023-04-03T05:47:08;2.10;;;1.90;;
8580;SDS011;4328;48.622;9.230;2023-04-03T05:49:35;3.17;;;2.00;;
8580;SDS011;4328;48.622;9.230;2023-04-03T05:52:05;2.67;;;1.73;;
8580;SDS011;4328;48.622;9.230;2023-04-03T05:54:32;4.30;;;2.07;;
8580;SDS011;4328;48.622;9.230;2023-04-03T05:56:58;2.13;;;2.00;;
8580;SDS011;4328;48.622;9.230;2023-04-03T05:59:25;2.00;;;1.80;;
8580;SDS011;4328;48.622;9.230;2023-04-03T06:01:51;2.13;;;2.00;;
8580;SDS011;4328;48.622;9.230;2023-04-03T06:04:17;2.27;;;1.80;;
8580;SDS011;4328;48.622;9.230;2023-04-03T06:06:47;2.07;;;1.97;;
8580;SDS011;4328;48.622;9.230;2023-04-03T06:09:14;2.10;;;2.00;;
8580;SDS011;4328;48.622;9.230;2023-04-03T06:11:40;1.90;;;1.80;;
8580;SDS011;4328;48.622;9.230;2023-04-03T06:14:07;2.37;;;2.03;;
8580;SDS011;4328;48.622;9.230;2023-04-03T06:16:34;2.00;;;1.90;;
8580;SDS011;4328;48.622;9.230;2023-04-03T06:19:00;1.93;;;1.83;;
8580;SDS011;4328;48.622;9.230;2023-04-03T06:21:27;1.90;;;1.80;;
8580;SDS011;4328;48.622;9.230;2023-04-03T06:23:55;2.17;;;1.80;;
8580;SDS011;4328;48.622;9.230;2023-04-03T06:26:21;2.27;;;2.13;;
8580;SDS011;4328;48.622;9.230;2023-04-03T06:28:47;3.03;;;1.80;;
8580;SDS011;4328;48.622;9.230;2023-04-03T06:31:14;2.63;;;2.00;;
8580;SDS011;4328;48.622;9.230;2023-04-03T06:33:41;2.23;;;2.03;;
8580;SDS011;4328;48.622;9.230;2023-04-03T06:36:09;2.57;;;1.90;;
8580;SDS011;4328;48.622;9.230;2023-04-03T06:38:36;2.07;;;1.90;;
8580;SDS011;4328;48.622;9.230;2023-04-03T06:41:04;1.90;;;1.80;;
8580;SDS011;4328;48.622;9.230;2023-04-03T06:43:31;1.97;;;1.80;;
8580;SDS011;4328;48.622;9.230;2023-04-03T06:45:57;2.10;;;1.80;;
8580;SDS011;4328;48.622;9.230;2023-04-03T06:48:24;2.97;;;2.03;;
8580;SDS011;4328;48.622;9.230;2023-04-03T06:50:50;1.67;;;1.60;;
8580;SDS011;4328;48.622;9.230;2023-04-03T06:53:16;4.90;;;1.90;;
8580;SDS011;4328;48.622;9.230;2023-04-03T06:55:43;2.63;;;1.70;;
8580;SDS011;4328;48.622;9.230;2023-04-03T06:58:11;2.10;;;2.00;;
8580;SDS011;4328;48.622;9.230;2023-04-03T07:00:37;2.83;;;1.80;;
8580;SDS011;4328;48.622;9.230;2023-04-03T07:03:04;1.83;;;1.70;;
8580;SDS011;4328;48.622;9.230;2023-04-03T07:05:30;1.90;;;1.70;;
8580;SDS011;4328;48.622;9.230;2023-04-03T07:07:57;1.90;;;1.80;;
8580;SDS011;4328;48.622;9.230;2023-04-03T07:10:23;1.60;;;1.50;;
8580;SDS011;4328;48.622;9.230;2023-04-03T07:12:49;1.90;;;1.80;;
8580;SDS011;4328;48.622;9.230;2023-04-03T07:15:17;2.07;;;1.90;;
8580;SDS011;4328;48.622;9.230;2023-04-03T07:17:44;2.10;;;2.00;;
8580;SDS011;4328;48.622;9.230;2023-04-03T07:20:11;2.00;;;1.90;;
8580;SDS011;4328;48.622;9.230;2023-04-03T07:22:38;2.03;;;1.83;;
8580;SDS011;4328;48.622;9.230;2023-04-03T07:25:05;2.23;;;1.83;;
8580;SDS011;4328;48.622;9.230;2023-04-03T07:27:32;1.90;;;1.80;;
8580;SDS011;4328;48.622;9.230;2023-04-03T07:30:02;2.27;;;2.07;;
8580;SDS011;4328;48.622;9.230;2023-04-03T07:32:30;2.87;;;2.17;;
8580;SDS011;4328;48.622;9.230;2023-04-03T07:34:56;1.87;;;1.70;;
8580;SDS011;4328;48.622;9.230;2023-04-03T07:37:23;2.90;;;2.37;;
8580;SDS011;4328;48.622;9.230;2023-04-03T07:39:49;2.60;;;2.10;;
8580;SDS011;4328;48.622;9.230;2023-04-03T07:42:15;1.70;;;1.60;;
8580;SDS011;4328;48.622;9.230;2023-04-03T07:44:42;2.07;;;1.87;;
8580;SDS011;4328;48.622;9.230;2023-04-03T07:47:08;2.30;;;1.70;;
8580;SDS011;4328;48.622;9.230;2023-04-03T07:49:36;2.00;;;1.80;;
8580;SDS011;4328;48.622;9.230;2023-04-03T07:52:05;2.03;;;1.83;;
8580;SDS011;4328;48.622;9.230;2023-04-03T07:54:32;1.93;;;1.83;;
8580;SDS011;4328;48.622;9.230;2023-04-03T07:56:58;2.17;;;1.97;;
8580;SDS011;4328;48.622;9.230;2023-04-03T07:59:25;2.00;;;1.90;;
8580;SDS011;4328;48.622;9.230;2023-04-03T08:01:51;2.40;;;1.90;;
8580;SDS011;4328;48.622;9.230;2023-04-03T08:04:18;2.40;;;2.20;;
8580;SDS011;4328;48.622;9.230;2023-04-03T08:06:46;1.57;;;1.47;;
8580;SDS011;4328;48.622;9.230;2023-04-03T08:09:12;2.43;;;2.00;;
8580;SDS011;4328;48.622;9.230;2023-04-03T08:11:39;2.30;;;1.90;;
8580;SDS011;4328;48.622;9.230;2023-04-03T08:14:05;2.37;;;2.07;;
8580;SDS011;4328;48.622;9.230;2023-04-03T08:16:32;1.90;;;1.80;;
8580;SDS011;4328;48.622;9.230;2023-04-03T08:18:58;1.77;;;1.67;;
8580;SDS011;4328;48.622;9.230;2023-04-03T08:21:25;1.70;;;1.60;;
8580;SDS011;4328;48.622;9.230;2023-04-03T08:23:53;1.83;;;1.73;;
8580;SDS011;4328;48.622;9.230;2023-04-03T08:26:20;1.80;;;1.70;;
8580;SDS011;4328;48.622;9.230;2023-04-03T08:28:47;3.10;;;1.90;;
8580;SDS011;4328;48.622;9.230;2023-04-03T08:31:14;2.30;;;2.10;;
8580;SDS011;4328;48.622;9.230;2023-04-03T08:33:42;2.97;;;1.87;;
8580;SDS011;4328;48.622;9.230;2023-04-03T08:36:15;3.23;;;2.00;;
8580;SDS011;4328;48.622;9.230;2023-04-03T08:38:42;2.20;;;2.00;;
8580;SDS011;4328;48.622;9.230;2023-04-03T08:41:14;2.70;;;2.00;;
8580;SDS011;4328;48.622;9.230;2023-04-03T08:43:44;2.10;;;2.00;;
8580;SDS011;4328;48.622;9.230;2023-04-03T08:46:14;2.27;;;2.10;;
8580;SDS011;4328;48.622;9.230;2023-04-03T08:48:41;1.97;;;1.87;;
8580;SDS011;4328;48.622;9.230;2023-04-03T08:51:10;2.10;;;1.90;;
8580;SDS011;4328;48.622;9.230;2023-04-03T08:53:39;1.90;;;1.80;;
8580;SDS011;4328;48.622;9.230;2023-04-03T08:56:07;2.37;;;2.17;;
8580;SDS011;4328;48.622;9.230;2023-04-03T08:58:37;1.93;;;1.77;;
8580;SDS011;4328;48.622;9.230;2023-04-03T09:01:10;2.13;;;1.93;;
8580;SDS011;4328;48.622;9.230;2023-04-03T09:03:41;2.17;;;1.97;;
8580;SDS011;4328;48.622;9.230;2023-04-03T09:06:10;2.03;;;1.87;;
8580;SDS011;4328;48.622;9.230;2023-04-03T09:08:40;2.00;;;1.90;;
8580;SDS011;4328;48.622;9.230;2023-04-03T09:11:14;2.17;;;1.67;;
8580;SDS011;4328;48.622;9.230;2023-04-03T09:13:44;1.93;;;1.83;;
8580;SDS011;4328;48.622;9.230;2023-04-03T09:16:16;2.07;;;1.80;;
8580;SDS011;4328;48.622;9.230;2023-04-03T09:18:48;3.57;;;2.10;;
8580;SDS011;4328;48.622;9.230;2023-04-03T09:21:17;2.33;;;1.90;;
8580;SDS011;4328;48.622;9.230;2023-04-03T09:23:47;2.00;;;1.80;;
8580;SDS011;4328;48.622;9.230;2023-04-03T09:26:16;1.90;;;1.80;;
8580;SDS011;4328;48.622;9.230;2023-04-03T09:28:45;2.83;;;2.10;;
8580;SDS011;4328;48.622;9.230;2023-04-03T09:31:16;2.33;;;2.20;;
8580;SDS011;4328;48.622;9.230;2023-04-03T09:33:44;2.10;;;2.00;;
8580;SDS011;4328;48.622;9.230;2023-04-03T09:36:11;1.90;;;1.80;;
8580;SDS011;4328;48.622;9.230;2023-04-03T09:38:37;2.93;;;2.20;;
8580;SDS011;4328;48.622;9.230;2023-04-03T09:41:05;2.10;;;1.90;;
8580;SDS011;4328;48.622;9.230;2023-04-03T09:43:32;2.30;;;2.00;;
8580;SDS011;4328;48.622;9.230;2023-04-03T09:48:42;2.40;;;1.90;;
8580;SDS011;4328;48.622;9.230;2023-04-03T09:51:16;1.90;;;1.80;;
8580;SDS011;4328;48.622;9.230;2023-04-03T09:53:43;2.77;;;2.13;;
8580;SDS011;4328;48.622;9.230;2023-04-03T09:56:18;2.10;;;2.00;;
8580;SDS011;4328;48.622;9.230;2023-04-03T09:58:47;2.50;;;2.30;;
8580;SDS011;4328;48.622;9.230;2023-04-03T10:01:20;5.03;;;1.80;;
8580;SDS011;4328;48.622;9.230;2023-04-03T10:03:48;1.90;;;1.80;;
8580;SDS011;4328;48.622;9.230;2023-04-03T10:06:29;2.87;;;2.27;;
8580;SDS011;4328;48.622;9.230;2023-04-03T10:08:58;2.60;;;2.07;;
8580;SDS011;4328;48.622;9.230;2023-04-03T10:11:24;1.80;;;1.70;;
8580;SDS011;4328;48.622;9.230;2023-04-03T10:13:52;1.97;;;1.77;;
8580;SDS011;4328;48.622;9.230;2023-04-03T10:16:20;3.03;;;2.03;;
8580;SDS011;4328;48.622;9.230;2023-04-03T10:18:51;1.70;;;1.60;;
8580;SDS011;4328;48.622;9.230;2023-04-03T10:21:24;1.50;;;1.40;;
8580;SDS011;4328;48.622;9.230;2023-04-03T10:23:57;1.77;;;1.67;;
8580;SDS011;4328;48.622;9.230;2023-04-03T10:26:29;1.90;;;1.77;;
8580;SDS011;4328;48.622;9.230;2023-04-03T10:29:01;3.17;;;1.90;;
8580;SDS011;4328;48.622;9.230;2023-04-03T10:31:29;2.10;;;1.60;;
8580;SDS011;4328;48.622;9.230;2023-04-03T10:34:02;1.73;;;1.63;;
8580;SDS011;4328;48.622;9.230;2023-04-03T10:36:34;1.97;;;1.80;;
8580;SDS011;4328;48.622;9.230;2023-04-03T10:39:05;1.70;;;1.50;;
8580;SDS011;4328;48.622;9.230;2023-04-03T10:41:39;1.50;;;1.40;;
8580;SDS011;4328;48.622;9.230;2023-04-03T10:44:13;1.97;;;1.53;;
8580;SDS011;4328;48.622;9.230;2023-04-03T10:46:41;1.57;;;1.47;;
8580;SDS011;4328;48.622;9.230;2023-04-03T10:49:14;1.60;;;1.50;;
8580;SDS011;4328;48.622;9.230;2023-04-03T10:51:45;1.80;;;1.57;;
8580;SDS011;4328;48.622;9.230;2023-04-03T10:54:13;1.60;;;1.50;;
8580;SDS011;4328;48.622;9.230;2023-04-03T10:56:42;2.23;;;1.40;;
8580;SDS011;4328;48.622;9.230;2023-04-03T10:59:16;1.30;;;1.20;;
8580;SDS011;4328;48.622;9.230;2023-04-03T11:01:44;1.50;;;1.40;;
8580;SDS011;4328;48.622;9.230;2023-04-03T11:04:13;1.50;;;1.40;;
8580;SDS011;4328;48.622;9.230;2023-04-03T11:06:42;2.17;;;1.30;;
8580;SDS011;4328;48.622;9.230;2023-04-03T11:09:11;1.77;;;1.57;;
8580;SDS011;4328;48.622;9.230;2023-04-03T11:11:42;2.07;;;1.53;;
8580;SDS011;4328;48.622;9.230;2023-04-03T11:14:09;2.17;;;1.40;;
8580;SDS011;4328;48.622;9.230;2023-04-03T11:16:42;3.27;;;1.37;;
8580;SDS011;4328;48.622;9.230;2023-04-03T11:19:11;1.80;;;1.20;;
8580;SDS011;4328;48.622;9.230;2023-04-03T11:21:41;1.73;;;1.50;;
8580;SDS011;4328;48.622;9.230;2023-04-03T11:24:11;1.60;;;1.50;;
8580;SDS011;4328;48.622;9.230;2023-04-03T11:26:42;1.70;;;1.40;;
8580;SDS011;4328;48.622;9.230;2023-04-03T11:29:09;2.70;;;1.60;;
8580;SDS011;4328;48.622;9.230;2023-04-03T11:31:41;2.73;;;1.77;;
8580;SDS011;4328;48.622;9.230;2023-04-03T11:34:14;1.63;;;1.53;;
8580;SDS011;4328;48.622;9.230;2023-04-03T11:36:45;2.87;;;1.57;;
8580;SDS011;4328;48.622;9.230;2023-04-03T11:39:16;2.50;;;1.70;;
8580;SDS011;4328;48.622;9.230;2023-04-03T11:41:45;1.33;;;1.30;;
8580;SDS011;4328;48.622;9.230;2023-04-03T11:44:26;1.70;;;1.60;;
8580;SDS011;4328;48.622;9.230;2023-04-03T11:46:54;2.53;;;1.80;;
8580;SDS011;4328;48.622;9.230;2023-04-03T11:52:07;2.33;;;1.67;;
8580;SDS011;4328;48.622;9.230;2023-04-03T11:54:36;2.67;;;1.70;;
8580;SDS011;4328;48.622;9.230;2023-04-03T11:59:56;1.83;;;1.60;;
8580;SDS011;4328;48.622;9.230;2023-04-03T12:02:35;3.03;;;1.50;;
8580;SDS011;4328;48.622;9.230;2023-04-03T12:07:53;3.50;;;1.80;;
8580;SDS011;4328;48.622;9.230;2023-04-03T12:10:40;2.73;;;1.63;;
8580;SDS011;4328;48.622;9.230;2023-04-03T12:13:12;1.63;;;1.37;;
8580;SDS011;4328;48.622;9.230;2023-04-03T12:21:16;1.70;;;1.37;;
8580;SDS011;4328;48.622;9.230;2023-04-03T12:23:58;3.07;;;1.43;;
8580;SDS011;4328;48.622;9.230;2023-04-03T12:26:26;3.30;;;1.47;;
8580;SDS011;4328;48.622;9.230;2023-04-03T12:28:53;1.60;;;1.40;;
8580;SDS011;4328;48.622;9.230;2023-04-03T12:31:20;2.50;;;1.50;;
8580;SDS011;4328;48.622;9.230;2023-04-03T12:33:58;1.80;;;1.70;;
8580;SDS011;4328;48.622;9.230;2023-04-03T12:36:28;2.20;;;1.47;;
8580;SDS011;4328;48.622;9.230;2023-04-03T12:39:03;3.07;;;1.53;;
8580;SDS011;4328;48.622;9.230;2023-04-03T12:41:36;2.93;;;1.40;;
8580;SDS011;4328;48.622;9.230;2023-04-03T12:44:07;1.97;;;1.60;;
8580;SDS011;4328;48.622;9.230;2023-04-03T12:46:37;2.23;;;1.57;;
8580;SDS011;4328;48.622;9.230;2023-04-03T12:49:13;1.70;;;1.60;;
8580;SDS011;4328;48.622;9.230;2023-04-03T12:51:41;1.87;;;1.77;;
8580;SDS011;4328;48.622;9.230;2023-04-03T12:54:14;1.67;;;1.57;;
8580;SDS011;4328;48.622;9.230;2023-04-03T12:56:41;1.50;;;1.40;;
8580;SDS011;4328;48.622;9.230;2023-04-03T12:59:15;1.97;;;1.63;;
8580;SDS011;4328;48.622;9.230;2023-04-03T13:01:42;2.67;;;1.60;;
8580;SDS011;4328;48.622;9.230;2023-04-03T13:04:09;3.87;;;1.60;;
8580;SDS011;4328;48.622;9.230;2023-04-03T13:06:37;1.40;;;1.30;;
8580;SDS011;4328;48.622;9.230;2023-04-03T13:09:04;1.57;;;1.30;;
8580;SDS011;4328;48.622;9.230;2023-04-03T13:11:34;2.20;;;1.30;;
8580;SDS011;4328;48.622;9.230;2023-04-03T13:14:02;1.87;;;1.37;;
8580;SDS011;4328;48.622;9.230;2023-04-03T13:16:30;1.50;;;1.40;;
8580;SDS011;4328;48.622;9.230;2023-04-03T13:18:56;2.10;;;1.67;;
8580;SDS011;4328;48.622;9.230;2023-04-03T13:21:24;2.17;;;1.60;;
8580;SDS011;4328;48.622;9.230;2023-04-03T13:23:52;2.37;;;1.37;;
8580;SDS011;4328;48.622;9.230;2023-04-03T13:26:20;1.57;;;1.40;;
8580;SDS011;4328;48.622;9.230;2023-04-03T13:28:50;2.10;;;1.73;;
8580;SDS011;4328;48.622;9.230;2023-04-03T13:31:18;2.23;;;1.50;;
8580;SDS011;4328;48.622;9.230;2023-04-03T13:33:52;2.20;;;1.40;;
8580;SDS011;4328;48.622;9.230;2023-04-03T13:36:19;2.87;;;1.70;;
8580;SDS011;4328;48.622;9.230;2023-04-03T13:38:46;1.60;;;1.50;;
8580;SDS011;4328;48.622;9.230;2023-04-03T13:41:24;1.80;;;1.70;;
8580;SDS011;4328;48.622;9.230;2023-04-03T13:43:52;2.87;;;1.80;;
8580;SDS011;4328;48.622;9.230;2023-04-03T13:46:24;3.33;;;1.60;;
8580;SDS011;4328;48.622;9.230;2023-04-03T13:48:52;3.77;;;1.80;;
8580;SDS011;4328;48.622;9.230;2023-04-03T13:51:20;2.80;;;1.60;;
8580;SDS011;4328;48.622;9.230;2023-04-03T13:53:48;1.47;;;1.37;;
8580;SDS011;4328;48.622;9.230;2023-04-03T13:56:19;1.33;;;1.23;;
8580;SDS011;4328;48.622;9.230;2023-04-03T13:59:20;2.13;;;1.50;;
8580;SDS011;4328;48.622;9.230;2023-04-03T14:01:48;1.97;;;1.60;;
8580;SDS011;4328;48.622;9.230;2023-04-03T14:04:16;1.93;;;1.70;;
8580;SDS011;4328;48.622;9.230;2023-04-03T14:06:44;2.17;;;1.40;;
8580;SDS011;4328;48.622;9.230;2023-04-03T14:09:10;1.60;;;1.50;;
8580;SDS011;4328;48.622;9.230;2023-04-03T14:11:37;2.67;;;1.80;;
8580;SDS011;4328;48.622;9.230;2023-04-03T14:14:10;1.60;;;1.50;;
8580;SDS011;4328;48.622;9.230;2023-04-03T14:16:38;2.00;;;1.43;;
8580;SDS011;4328;48.622;9.230;2023-04-03T14:19:05;1.57;;;1.47;;
8580;SDS011;4328;48.622;9.230;2023-04-03T14:21:32;4.00;;;1.50;;
8580;SDS011;4328;48.622;9.230;2023-04-03T14:23:59;1.70;;;1.37;;
8580;SDS011;4328;48.622;9.230;2023-04-03T14:26:25;1.97;;;1.57;;
8580;SDS011;4328;48.622;9.230;2023-04-03T14:28:53;2.60;;;1.80;;
8580;SDS011;4328;48.622;9.230;2023-04-03T14:31:22;1.60;;;1.50;;
8580;SDS011;4328;48.622;9.230;2023-04-03T14:33:49;1.70;;;1.60;;
8580;SDS011;4328;48.622;9.230;2023-04-03T14:36:16;1.40;;;1.30;;
8580;SDS011;4328;48.622;9.230;2023-04-03T14:38:44;1.83;;;1.63;;
8580;SDS011;4328;48.622;9.230;2023-04-03T14:41:11;1.50;;;1.40;;
8580;SDS011;4328;48.622;9.230;2023-04-03T14:43:38;2.10;;;1.70;;
8580;SDS011;4328;48.622;9.230;2023-04-03T14:46:04;3.57;;;1.60;;
8580;SDS011;4328;48.622;9.230;2023-04-03T14:48:33;1.73;;;1.53;;
8580;SDS011;4328;48.622;9.230;2023-04-03T14:50:59;2.17;;;1.50;;
8580;SDS011;4328;48.622;9.230;2023-04-03T14:53:26;2.00;;;1.83;;
8580;SDS011;4328;48.622;9.230;2023-04-03T14:55:54;2.40;;;1.87;;
8580;SDS011;4328;48.622;9.230;2023-04-03T14:58:21;1.47;;;1.30;;
8580;SDS011;4328;48.622;9.230;2023-04-03T15:00:47;1.53;;;1.40;;
8580;SDS011;4328;48.622;9.230;2023-04-03T15:03:14;1.63;;;1.50;;
8580;SDS011;4328;48.622;9.230;2023-04-03T15:05:43;2.23;;;1.80;;
8580;SDS011;4328;48.622;9.230;2023-04-03T15:08:16;2.13;;;1.70;;
8580;SDS011;4328;48.622;9.230;2023-04-03T15:10:43;4.90;;;1.83;;
8580;SDS011;4328;48.622;9.230;2023-04-03T15:13:10;2.43;;;1.83;;
8580;SDS011;4328;48.622;9.230;2023-04-03T15:15:37;1.77;;;1.53;;
8580;SDS011;4328;48.622;9.230;2023-04-03T15:18:04;2.00;;;1.90;;
8580;SDS011;4328;48.622;9.230;2023-04-03T15:20:31;2.20;;;1.83;;
8580;SDS011;4328;48.622;9.230;2023-04-03T15:23:00;1.57;;;1.47;;
8580;SDS011;4328;48.622;9.230;2023-04-03T15:25:27;1.87;;;1.77;;
8580;SDS011;4328;48.622;9.230;2023-04-03T15:27:53;2.03;;;1.70;;
8580;SDS011;4328;48.622;9.230;2023-04-03T15:30:20;2.70;;;1.90;;
8580;SDS011;4328;48.622;9.230;2023-04-03T15:32:47;1.70;;;1.60;;
8580;SDS011;4328;48.622;9.230;2023-04-03T15:35:13;1.90;;;1.80;;
8580;SDS011;4328;48.622;9.230;2023-04-03T15:37:40;1.67;;;1.57;;